Time;durP1;ratioP1;P1;durP2;ratioP2;P2;SDS_P1;SDS_P2;PMS_P1;PMS_P2;Temp;Humidity;BMP_temperature;BMP_pressure;BME280_temperature;BME280_humidity;BME280_pressure;Samples;Min_cycle;Max_cycle;Signal;HPM_P1;HPM_P2
2023/08/04 00:00:48;;;;;;;0.20;0.20;;;15.90;99.90;;;;;;5092260;28;20027;-79
2023/08/04 00:03:14;;;;;;;2.60;2.30;;;15.30;99.90;;;;;;5080699;28;20484;-80
2023/08/04 00:05:40;;;;;;;0.30;0.30;;;15.20;99.90;;;;;;5093428;28;20410;-79
2023/08/04 00:08:06;;;;;;;0.17;0.17;;;15.20;99.90;;;;;;5093255;28;20162;-80
2023/08/04 00:10:31;;;;;;;0.00;0.00;;;15.30;99.90;;;;;;5093564;28;20035;-77
2023/08/04 00:12:57;;;;;;;0.00;0.00;;;15.70;99.90;;;;;;5084920;28;20027;-80
2023/08/04 00:15:23;;;;;;;1.15;1.10;;;15.60;99.90;;;;;;5077728;28;20047;-80
2023/08/04 00:17:49;;;;;;;0.00;0.00;;;15.50;99.90;;;;;;5076475;28;20024;-80
2023/08/04 00:20:14;;;;;;;0.13;0.13;;;15.40;99.90;;;;;;5088181;28;20435;-80
2023/08/04 00:22:40;;;;;;;0.40;0.40;;;15.70;99.90;;;;;;5079089;28;20020;-80
2023/08/04 00:25:06;;;;;;;0.35;0.35;;;15.30;99.90;;;;;;5091888;28;20464;-80
2023/08/04 00:27:32;;;;;;;0.65;0.43;;;15.30;99.90;;;;;;5093452;28;20016;-80
2023/08/04 00:29:58;;;;;;;0.65;0.65;;;15.20;99.90;;;;;;5089382;28;20427;-80
2023/08/04 00:32:24;;;;;;;0.30;0.30;;;15.40;99.90;;;;;;5081054;28;20054;-80
2023/08/04 00:34:50;;;;;;;0.00;0.00;;;15.50;99.90;;;;;;5091687;28;20476;-78
2023/08/04 00:37:15;;;;;;;9.40;1.25;;;15.50;99.90;;;;;;5091586;28;20020;-80
2023/08/04 00:39:41;;;;;;;0.10;0.10;;;15.80;99.90;;;;;;5091747;28;20032;-79
2023/08/04 00:42:07;;;;;;;0.00;0.00;;;16.10;99.90;;;;;;5092760;28;20039;-80
2023/08/04 00:44:33;;;;;;;4.75;0.75;;;16.10;99.90;;;;;;5092961;28;20028;-79
2023/08/04 00:46:59;;;;;;;12.25;1.48;;;16.30;99.90;;;;;;5089658;28;20107;-80
2023/08/04 00:49:25;;;;;;;0.73;0.30;;;16.00;99.90;;;;;;5082317;28;20397;-80
2023/08/04 00:51:51;;;;;;;0.08;0.08;;;15.80;99.90;;;;;;5091542;28;20036;-80
2023/08/04 00:54:17;;;;;;;0.00;0.00;;;15.80;99.90;;;;;;5093082;28;20024;-80
2023/08/04 00:56:43;;;;;;;0.28;0.28;;;16.10;99.90;;;;;;5092723;28;20020;-79
2023/08/04 00:59:09;;;;;;;0.08;0.08;;;15.80;99.90;;;;;;5092593;28;20040;-79
2023/08/04 01:01:34;;;;;;;0.30;0.30;;;15.60;99.90;;;;;;5092501;28;20487;-80
2023/08/04 01:04:00;;;;;;;0.00;0.00;;;15.80;99.90;;;;;;5091375;28;20408;-77
2023/08/04 01:06:39;;;;;;;0.20;0.20;;;15.80;99.90;;;;;;5092533;28;20028;-80
2023/08/04 01:09:28;;;;;;;0.10;0.10;;;15.80;99.90;;;;;;5092877;28;20035;-80
2023/08/04 01:12:12;;;;;;;0.00;0.00;;;15.80;99.90;;;;;;5065700;28;20034;-80
2023/08/04 01:14:41;;;;;;;0.10;0.10;;;15.40;99.90;;;;;;5079368;28;20043;-78
2023/08/04 01:17:28;;;;;;;1.30;0.93;;;15.20;99.90;;;;;;5091462;28;20050;-76
2023/08/04 01:19:55;;;;;;;0.65;0.60;;;15.10;99.90;;;;;;5080992;28;20051;-80
2023/08/04 01:22:22;;;;;;;6.82;0.47;;;15.10;99.90;;;;;;5079037;28;20343;-79
2023/08/04 01:24:50;;;;;;;1.98;1.02;;;15.40;99.90;;;;;;5094386;28;20613;-79
2023/08/04 01:27:22;;;;;;;0.00;0.00;;;15.40;99.90;;;;;;5095400;28;20020;-80
2023/08/04 01:29:49;;;;;;;0.00;0.00;;;15.70;99.90;;;;;;5096588;28;20024;-80
2023/08/04 01:32:16;;;;;;;0.05;0.05;;;16.00;99.90;;;;;;5097073;28;20024;-80
2023/08/04 01:34:44;;;;;;;0.00;0.00;;;16.20;99.90;;;;;;5096029;28;20119;-80
2023/08/04 01:37:10;;;;;;;0.10;0.10;;;16.10;99.90;;;;;;5095263;28;20020;-80
2023/08/04 01:39:37;;;;;;;0.28;0.28;;;16.00;99.90;;;;;;5094868;28;20040;-80
2023/08/04 01:42:04;;;;;;;0.00;0.00;;;15.70;99.90;;;;;;5095268;28;20024;-80
2023/08/04 01:44:30;;;;;;;0.47;0.28;;;15.80;99.90;;;;;;5096300;28;20036;-80
2023/08/04 01:46:55;;;;;;;2.40;1.10;;;15.70;99.90;;;;;;5095005;28;20158;-80
2023/08/04 01:49:21;;;;;;;0.20;0.20;;;15.60;99.90;;;;;;5095846;28;20039;-80
2023/08/04 01:51:47;;;;;;;0.55;0.32;;;15.60;99.90;;;;;;5094750;28;20437;-80
2023/08/04 01:54:13;;;;;;;0.00;0.00;;;15.70;99.90;;;;;;5094994;28;20035;-79
2023/08/04 01:56:38;;;;;;;0.10;0.10;;;15.60;99.90;;;;;;5094737;28;20412;-80
2023/08/04 01:59:04;;;;;;;1.55;0.25;;;15.40;99.90;;;;;;5096027;28;20398;-80
2023/08/04 02:01:30;;;;;;;0.03;0.03;;;15.80;99.90;;;;;;5095847;28;20027;-79
2023/08/04 02:03:56;;;;;;;0.00;0.00;;;15.80;99.90;;;;;;5095456;28;20059;-80
2023/08/04 02:06:21;;;;;;;3.22;1.05;;;15.60;99.90;;;;;;5096021;28;20111;-80
2023/08/04 02:08:47;;;;;;;0.00;0.00;;;15.60;99.90;;;;;;5080457;28;20028;-80
2023/08/04 02:11:14;;;;;;;0.00;0.00;;;15.70;99.90;;;;;;5094563;28;20051;-80
2023/08/04 02:13:40;;;;;;;0.10;0.10;;;15.80;99.90;;;;;;5095378;28;20028;-80
2023/08/04 02:16:06;;;;;;;0.00;0.00;;;15.80;99.90;;;;;;5096043;28;20031;-80
2023/08/04 02:18:32;;;;;;;0.00;0.00;;;15.80;99.90;;;;;;5093917;28;20034;-80
2023/08/04 02:20:59;;;;;;;0.00;0.00;;;16.10;99.90;;;;;;5079501;28;20027;-80
2023/08/04 02:23:25;;;;;;;0.10;0.10;;;15.80;99.90;;;;;;5083609;28;20453;-80
2023/08/04 02:25:50;;;;;;;0.32;0.32;;;15.70;99.90;;;;;;5094077;28;20085;-78
2023/08/04 02:28:16;;;;;;;2.20;1.55;;;15.80;99.90;;;;;;5095652;28;20027;-79
2023/08/04 02:30:42;;;;;;;0.00;0.00;;;15.60;99.90;;;;;;5095346;28;20039;-80
2023/08/04 02:33:08;;;;;;;0.10;0.10;;;15.30;99.90;;;;;;5095152;28;20080;-80
2023/08/04 02:35:34;;;;;;;1.17;0.73;;;15.80;99.90;;;;;;5094329;28;20028;-79
2023/08/04 02:38:01;;;;;;;0.00;0.00;;;16.20;99.90;;;;;;5077013;28;20024;-80
2023/08/04 02:40:26;;;;;;;0.30;0.30;;;16.00;99.90;;;;;;5074459;28;20044;-80
2023/08/04 02:42:52;;;;;;;0.10;0.10;;;15.70;99.90;;;;;;5073319;28;20017;-79
2023/08/04 02:45:18;;;;;;;0.00;0.00;;;15.90;99.90;;;;;;5074718;28;20025;-80
2023/08/04 02:47:44;;;;;;;0.35;0.35;;;16.00;99.90;;;;;;5074467;28;20495;-80
2023/08/04 02:50:09;;;;;;;0.40;0.40;;;16.10;99.90;;;;;;5074763;28;20389;-80
2023/08/04 02:52:35;;;;;;;0.93;0.82;;;16.00;99.90;;;;;;5073622;28;20048;-80
2023/08/04 02:55:01;;;;;;;0.00;0.00;;;15.60;99.90;;;;;;5074455;28;20060;-80
2023/08/04 02:57:31;;;;;;;0.00;0.00;;;15.50;99.90;;;;;;5074756;28;20128;-80
2023/08/04 02:59:58;;;;;;;0.00;0.00;;;15.50;99.90;;;;;;5074191;28;20040;-79
2023/08/04 03:02:26;;;;;;;0.00;0.00;;;15.50;99.90;;;;;;5074395;28;20480;-80
2023/08/04 03:04:52;;;;;;;0.00;0.00;;;15.70;99.90;;;;;;5074461;28;20044;-77
2023/08/04 03:07:18;;;;;;;0.00;0.00;;;16.00;99.90;;;;;;5074557;28;20035;-80
2023/08/04 03:09:43;;;;;;;0.00;0.00;;;16.30;99.90;;;;;;5074300;28;20100;-80
2023/08/04 03:12:09;;;;;;;0.00;0.00;;;16.50;99.90;;;;;;5074139;28;20450;-78
2023/08/04 03:14:35;;;;;;;0.10;0.10;;;16.50;99.90;;;;;;5074390;28;20473;-77
2023/08/04 03:17:01;;;;;;;0.45;0.45;;;16.30;99.90;;;;;;5073874;28;20036;-80
2023/08/04 03:19:27;;;;;;;0.00;0.00;;;16.40;99.90;;;;;;5074422;28;20036;-80
2023/08/04 03:21:53;;;;;;;0.10;0.10;;;16.60;99.90;;;;;;5072740;28;20079;-80
2023/08/04 03:24:18;;;;;;;0.00;0.00;;;16.50;99.90;;;;;;5089581;28;20036;-80
2023/08/04 03:26:44;;;;;;;0.28;0.28;;;16.30;99.90;;;;;;5094452;28;20027;-80
2023/08/04 03:29:10;;;;;;;0.38;0.38;;;16.20;99.90;;;;;;5094531;28;20056;-80
2023/08/04 03:31:36;;;;;;;0.00;0.00;;;16.10;99.90;;;;;;5093799;28;20043;-79
2023/08/04 03:34:02;;;;;;;0.00;0.00;;;16.20;99.90;;;;;;5094103;28;20411;-80
2023/08/04 03:36:27;;;;;;;0.10;0.10;;;16.20;99.90;;;;;;5093988;28;20152;-79
2023/08/04 03:38:53;;;;;;;0.35;0.32;;;15.90;99.90;;;;;;5094207;28;20118;-80
2023/08/04 03:41:19;;;;;;;0.20;0.20;;;15.60;99.90;;;;;;5093985;28;20023;-80
2023/08/04 03:43:45;;;;;;;0.00;0.00;;;15.60;99.90;;;;;;5093952;28;20028;-80
2023/08/04 03:46:11;;;;;;;0.00;0.00;;;15.80;99.90;;;;;;5093412;28;20086;-79
2023/08/04 03:48:37;;;;;;;0.05;0.05;;;16.10;99.90;;;;;;5093433;28;20020;-80
2023/08/04 03:51:03;;;;;;;0.22;0.22;;;16.10;99.90;;;;;;5093990;28;20109;-80
2023/08/04 03:53:28;;;;;;;0.15;0.15;;;16.00;99.90;;;;;;5093937;28;20425;-79
2023/08/04 03:55:54;;;;;;;0.00;0.00;;;15.90;99.90;;;;;;5093723;28;20101;-79
2023/08/04 03:58:20;;;;;;;0.55;0.43;;;16.10;99.90;;;;;;5093479;28;20028;-80
2023/08/04 04:00:46;;;;;;;0.03;0.03;;;16.20;99.90;;;;;;5092144;28;20384;-79
2023/08/04 04:03:11;;;;;;;0.28;0.28;;;16.20;99.90;;;;;;5093724;28;20032;-80
2023/08/04 04:05:38;;;;;;;0.00;0.00;;;16.30;99.90;;;;;;5093522;28;20024;-79
2023/08/04 04:08:04;;;;;;;0.00;0.00;;;16.40;99.90;;;;;;5093458;28;20035;-78
2023/08/04 04:10:30;;;;;;;0.30;0.30;;;16.20;99.90;;;;;;5092919;28;20012;-79
2023/08/04 04:12:56;;;;;;;0.10;0.10;;;15.80;99.90;;;;;;5093019;28;20016;-79
2023/08/04 04:15:21;;;;;;;0.35;0.35;;;15.70;99.90;;;;;;5092977;28;20117;-79
2023/08/04 04:17:47;;;;;;;0.10;0.10;;;15.80;99.90;;;;;;5093221;28;20060;-78
2023/08/04 04:20:13;;;;;;;0.40;0.35;;;15.90;99.90;;;;;;5093407;28;20032;-79
2023/08/04 04:22:39;;;;;;;0.10;0.10;;;16.30;99.90;;;;;;5078954;28;20035;-79
2023/08/04 04:25:05;;;;;;;0.00;0.00;;;15.90;99.90;;;;;;5093247;28;20024;-80
2023/08/04 04:27:31;;;;;;;0.00;0.00;;;15.90;99.90;;;;;;5093177;28;20059;-80
2023/08/04 04:29:57;;;;;;;0.10;0.10;;;15.90;99.90;;;;;;5092906;28;20078;-80
2023/08/04 04:32:22;;;;;;;3.45;1.25;;;15.80;99.90;;;;;;5091852;28;20020;-80
2023/08/04 04:34:49;;;;;;;0.00;0.00;;;15.50;99.90;;;;;;5093092;28;20017;-79
2023/08/04 04:37:15;;;;;;;0.03;0.03;;;15.70;99.90;;;;;;5093167;28;20077;-79
2023/08/04 04:39:41;;;;;;;0.00;0.00;;;15.90;99.90;;;;;;5093028;28;20040;-77
2023/08/04 04:42:07;;;;;;;0.00;0.00;;;15.90;99.90;;;;;;5092928;28;20097;-79
2023/08/04 04:44:32;;;;;;;0.10;0.10;;;15.70;99.90;;;;;;5093001;28;20028;-79
2023/08/04 04:46:58;;;;;;;0.00;0.00;;;15.90;99.90;;;;;;5078677;28;20016;-79
2023/08/04 04:49:24;;;;;;;0.10;0.10;;;16.10;99.90;;;;;;5093148;28;20097;-79
2023/08/04 04:51:50;;;;;;;0.57;0.50;;;16.40;99.90;;;;;;5092639;28;20055;-79
2023/08/04 04:54:15;;;;;;;0.22;0.22;;;16.10;99.90;;;;;;5093158;28;20020;-79
2023/08/04 04:56:41;;;;;;;0.10;0.10;;;16.40;99.90;;;;;;5092876;28;20353;-79
2023/08/04 04:59:07;;;;;;;0.30;0.30;;;16.50;99.90;;;;;;5091952;28;20551;-80
2023/08/04 05:01:33;;;;;;;4.85;1.35;;;16.20;99.90;;;;;;5083841;28;20016;-79
2023/08/04 05:03:59;;;;;;;0.70;0.70;;;16.00;99.90;;;;;;5080928;28;20033;-79
2023/08/04 05:06:25;;;;;;;0.05;0.05;;;16.50;99.90;;;;;;5072232;28;20031;-80
2023/08/04 05:08:50;;;;;;;0.30;0.30;;;16.70;99.90;;;;;;5072185;28;20024;-80
2023/08/04 05:11:16;;;;;;;1.00;0.65;;;16.80;99.90;;;;;;5072383;28;20461;-78
2023/08/04 05:13:42;;;;;;;6.15;1.98;;;16.30;99.90;;;;;;5072005;28;20385;-79
2023/08/04 05:16:08;;;;;;;0.22;0.17;;;16.50;99.90;;;;;;5072354;28;20029;-79
2023/08/04 05:18:34;;;;;;;0.00;0.00;;;16.90;99.90;;;;;;5072344;28;20033;-77
2023/08/04 05:21:00;;;;;;;2.35;2.15;;;16.80;99.90;;;;;;5072286;28;20507;-80
2023/08/04 05:23:26;;;;;;;0.45;0.40;;;16.70;99.90;;;;;;5080773;28;20032;-80
2023/08/04 05:25:52;;;;;;;0.00;0.00;;;16.50;99.90;;;;;;5091034;28;20154;-79
2023/08/04 05:28:28;;;;;;;0.00;0.00;;;16.40;99.90;;;;;;5092469;28;20032;-79
2023/08/04 05:30:58;;;;;;;0.05;0.05;;;16.50;99.90;;;;;;5092471;28;20148;-80
2023/08/04 05:33:25;;;;;;;1.42;0.55;;;16.50;99.90;;;;;;5078649;28;20464;-80
2023/08/04 05:35:51;;;;;;;0.00;0.00;;;16.50;99.90;;;;;;5091212;28;20028;-79
2023/08/04 05:38:16;;;;;;;0.00;0.00;;;16.50;99.90;;;;;;5091054;28;20366;-72
2023/08/04 05:40:44;;;;;;;0.00;0.00;;;16.60;99.90;;;;;;5092395;28;20031;-80
2023/08/04 05:43:11;;;;;;;0.00;0.00;;;17.00;99.90;;;;;;5092343;28;20050;-79
2023/08/04 05:45:39;;;;;;;0.00;0.00;;;17.10;99.90;;;;;;5092558;28;20060;-80
2023/08/04 05:48:05;;;;;;;0.35;0.35;;;17.30;99.90;;;;;;5092068;28;20027;-70
2023/08/04 05:50:31;;;;;;;0.22;0.22;;;17.10;99.90;;;;;;5092568;28;20500;-79
2023/08/04 05:52:58;;;;;;;1.05;0.73;;;16.90;99.90;;;;;;5092398;28;20028;-79
2023/08/04 05:55:24;;;;;;;2.17;0.77;;;16.90;99.90;;;;;;5092029;28;20028;-77
2023/08/04 05:57:50;;;;;;;1.02;0.70;;;16.80;99.90;;;;;;5092057;28;20039;-79
2023/08/04 06:00:17;;;;;;;0.77;0.30;;;16.80;99.90;;;;;;5091402;28;20028;-79
2023/08/04 06:02:44;;;;;;;0.77;0.40;;;16.80;99.90;;;;;;5082604;28;20025;-77
2023/08/04 06:05:11;;;;;;;0.08;0.08;;;17.00;99.90;;;;;;5072297;28;20035;-78
2023/08/04 06:07:39;;;;;;;0.00;0.00;;;17.10;99.90;;;;;;5069923;28;20032;-79
2023/08/04 06:10:05;;;;;;;0.05;0.05;;;17.00;99.90;;;;;;5074515;28;20407;-78
2023/08/04 06:12:31;;;;;;;1.30;0.73;;;17.20;99.90;;;;;;5074866;28;20028;-78
2023/08/04 06:14:57;;;;;;;0.73;0.73;;;17.10;99.90;;;;;;5078634;28;20499;-79
2023/08/04 06:17:23;;;;;;;0.00;0.00;;;17.00;99.90;;;;;;5078014;28;20024;-79
2023/08/04 06:19:49;;;;;;;0.22;0.22;;;17.30;99.90;;;;;;5082724;28;20029;-80
2023/08/04 06:22:15;;;;;;;0.03;0.03;;;17.30;99.90;;;;;;5082682;28;20430;-77
2023/08/04 06:24:41;;;;;;;0.00;0.00;;;17.60;99.90;;;;;;5094056;28;20027;-79
2023/08/04 06:27:08;;;;;;;0.30;0.28;;;17.50;99.90;;;;;;5094387;28;20187;-80
2023/08/04 06:29:34;;;;;;;2.22;0.30;;;17.70;99.90;;;;;;5094370;28;20036;-79
2023/08/04 06:32:01;;;;;;;0.00;0.00;;;17.80;99.90;;;;;;5089435;28;20055;-75
2023/08/04 06:34:27;;;;;;;10.68;1.50;;;17.50;99.90;;;;;;5092935;28;20039;-80
2023/08/04 06:36:53;;;;;;;1.30;0.68;;;17.60;99.90;;;;;;5094074;28;20806;-80
2023/08/04 06:39:19;;;;;;;0.00;0.00;;;17.50;99.90;;;;;;5094191;28;20078;-78
2023/08/04 06:41:45;;;;;;;0.00;0.00;;;17.70;99.90;;;;;;5094234;28;20016;-80
2023/08/04 06:44:13;;;;;;;0.00;0.00;;;18.00;99.90;;;;;;5094482;28;20031;-80
2023/08/04 06:46:39;;;;;;;0.00;0.00;;;18.00;99.90;;;;;;5087777;28;20028;-80
2023/08/04 06:49:05;;;;;;;0.08;0.08;;;18.20;99.90;;;;;;5075883;28;20130;-80
2023/08/04 06:51:30;;;;;;;0.00;0.00;;;18.60;99.90;;;;;;5079519;28;20055;-80
2023/08/04 06:53:56;;;;;;;0.20;0.20;;;19.10;99.90;;;;;;5077446;28;20154;-79
2023/08/04 06:56:22;;;;;;;0.10;0.10;;;18.80;99.90;;;;;;5079477;28;20020;-78
2023/08/04 06:58:48;;;;;;;0.00;0.00;;;18.40;99.90;;;;;;5077721;28;20119;-76
2023/08/04 07:01:14;;;;;;;0.08;0.08;;;17.80;99.90;;;;;;5081811;28;20413;-80
2023/08/04 07:03:40;;;;;;;0.32;0.30;;;17.50;99.90;;;;;;5083789;28;20024;-79
2023/08/04 07:06:06;;;;;;;0.00;0.00;;;17.50;99.90;;;;;;5074919;28;20539;-79
2023/08/04 07:08:32;;;;;;;0.00;0.00;;;17.30;99.90;;;;;;5076325;28;20127;-80
2023/08/04 07:10:58;;;;;;;0.00;0.00;;;17.60;99.90;;;;;;5072136;28;20029;-81
2023/08/04 07:13:23;;;;;;;2.38;0.75;;;17.60;99.90;;;;;;5072415;28;20484;-79
2023/08/04 07:15:58;;;;;;;0.00;0.00;;;17.80;99.90;;;;;;5086434;28;20028;-78
2023/08/04 07:18:23;;;;;;;0.00;0.00;;;17.60;99.90;;;;;;5087938;28;20047;-78
2023/08/04 07:20:49;;;;;;;0.10;0.10;;;17.50;99.90;;;;;;5075640;28;20013;-78
2023/08/04 07:23:15;;;;;;;0.20;0.17;;;17.60;99.90;;;;;;5078487;28;20401;-80
2023/08/04 07:25:41;;;;;;;0.22;0.22;;;17.50;99.90;;;;;;5076827;28;20410;-79
2023/08/04 07:28:07;;;;;;;0.00;0.00;;;17.70;99.90;;;;;;5074698;28;20032;-79
2023/08/04 07:30:32;;;;;;;0.00;0.00;;;17.90;99.90;;;;;;5078716;28;20480;-79
2023/08/04 07:32:59;;;;;;;0.00;0.00;;;17.80;99.90;;;;;;5078117;28;20043;-79
2023/08/04 07:35:25;;;;;;;0.20;0.10;;;18.00;99.90;;;;;;5075611;28;20032;-79
2023/08/04 07:37:50;;;;;;;0.10;0.10;;;18.50;99.90;;;;;;5077361;28;20021;-79
2023/08/04 07:40:16;;;;;;;0.00;0.00;;;18.80;99.90;;;;;;5078016;28;20101;-70
2023/08/04 07:42:42;;;;;;;0.00;0.00;;;18.80;99.90;;;;;;5083866;28;20024;-79
2023/08/04 07:45:09;;;;;;;1.00;0.20;;;18.40;99.90;;;;;;5075735;28;20473;-79
2023/08/04 07:47:35;;;;;;;0.32;0.32;;;18.10;99.90;;;;;;5074756;28;20032;-79
2023/08/04 07:50:01;;;;;;;0.00;0.00;;;17.80;99.90;;;;;;5077581;28;20028;-75
2023/08/04 07:52:26;;;;;;;0.00;0.00;;;17.90;99.90;;;;;;5085805;28;20028;-79
2023/08/04 07:54:52;;;;;;;0.20;0.20;;;17.90;99.90;;;;;;5080322;28;20043;-78
2023/08/04 07:57:18;;;;;;;0.10;0.10;;;18.00;99.90;;;;;;5083084;28;20064;-80
2023/08/04 07:59:44;;;;;;;0.00;0.00;;;18.30;99.90;;;;;;5076923;28;20074;-79
2023/08/04 08:02:09;;;;;;;0.00;0.00;;;18.10;99.90;;;;;;5080084;28;20416;-71
2023/08/04 08:04:35;;;;;;;0.00;0.00;;;18.40;99.90;;;;;;5079960;28;20028;-75
2023/08/04 08:07:01;;;;;;;0.00;0.00;;;18.50;99.90;;;;;;5077052;28;20029;-79
2023/08/04 08:09:27;;;;;;;0.50;0.35;;;18.60;99.90;;;;;;5075179;28;20111;-79
2023/08/04 08:11:53;;;;;;;0.68;0.68;;;18.50;99.90;;;;;;5072902;28;20028;-80
2023/08/04 08:14:19;;;;;;;0.00;0.00;;;18.40;99.90;;;;;;5079719;28;20134;-79
2023/08/04 08:16:45;;;;;;;0.30;0.30;;;18.10;99.90;;;;;;5079429;28;20017;-80
2023/08/04 08:19:12;;;;;;;0.40;0.40;;;18.10;99.90;;;;;;5076491;28;20086;-80
2023/08/04 08:21:42;;;;;;;0.00;0.00;;;18.00;99.90;;;;;;5073701;28;20040;-79
2023/08/04 08:24:07;;;;;;;0.00;0.00;;;18.30;99.90;;;;;;5074368;28;20455;-77
2023/08/04 08:26:33;;;;;;;0.05;0.05;;;18.30;99.90;;;;;;5073295;28;20100;-79
2023/08/04 08:28:59;;;;;;;0.00;0.00;;;18.30;99.90;;;;;;5082414;28;20525;-79
2023/08/04 08:31:24;;;;;;;1.45;0.10;;;18.20;99.90;;;;;;5077869;28;20374;-77
2023/08/04 08:33:50;;;;;;;0.08;0.08;;;18.40;99.90;;;;;;5077639;28;20041;-78
2023/08/04 08:36:17;;;;;;;0.00;0.00;;;18.60;99.90;;;;;;5076827;28;20028;-78
2023/08/04 08:38:43;;;;;;;0.45;0.40;;;19.10;99.90;;;;;;5072209;28;20477;-77
2023/08/04 08:41:11;;;;;;;0.22;0.22;;;18.80;99.90;;;;;;5082395;28;20073;-77
2023/08/04 08:43:37;;;;;;;0.98;0.55;;;18.70;99.90;;;;;;5079979;28;20090;-75
2023/08/04 08:46:03;;;;;;;0.38;0.38;;;18.60;99.90;;;;;;5080642;28;20028;-73
2023/08/04 08:48:37;;;;;;;0.10;0.10;;;18.60;99.90;;;;;;5072157;28;20087;-77
2023/08/04 08:51:10;;;;;;;0.28;0.28;;;18.70;99.90;;;;;;5089856;28;20492;-77
2023/08/04 08:53:37;;;;;;;0.00;0.00;;;18.60;99.90;;;;;;5081933;28;20025;-78
2023/08/04 08:56:04;;;;;;;1.33;0.32;;;19.00;99.90;;;;;;5082203;28;20541;-78
2023/08/04 08:58:32;;;;;;;0.00;0.00;;;18.80;99.90;;;;;;5074823;28;20028;-77
2023/08/04 09:00:59;;;;;;;0.05;0.05;;;19.10;99.90;;;;;;5077343;28;20024;-78
2023/08/04 09:03:25;;;;;;;0.35;0.35;;;19.70;99.90;;;;;;5085870;28;20392;-78
2023/08/04 09:05:51;;;;;;;0.55;0.55;;;19.50;99.90;;;;;;5082546;28;20368;-77
2023/08/04 09:08:16;;;;;;;0.30;0.30;;;19.40;99.90;;;;;;5078805;28;20020;-78
2023/08/04 09:10:44;;;;;;;0.20;0.20;;;19.80;99.90;;;;;;5077389;28;20114;-75
2023/08/04 09:13:12;;;;;;;0.08;0.08;;;19.70;99.90;;;;;;5083418;28;20028;-74
2023/08/04 09:15:49;;;;;;;0.15;0.15;;;20.00;99.90;;;;;;5082519;28;20024;-71
2023/08/04 09:18:31;;;;;;;11.68;0.65;;;20.20;99.90;;;;;;5075761;28;21221;-70
2023/08/04 09:21:09;;;;;;;1.30;0.57;;;19.90;99.90;;;;;;5074386;28;20036;-76
2023/08/04 09:23:41;;;;;;;0.10;0.10;;;19.80;99.90;;;;;;5085852;28;20020;-76
2023/08/04 09:26:07;;;;;;;0.10;0.10;;;19.60;99.90;;;;;;5082092;28;20497;-77
2023/08/04 09:28:33;;;;;;;0.00;0.00;;;19.50;99.90;;;;;;5078446;28;20031;-76
2023/08/04 09:31:12;;;;;;;0.20;0.20;;;20.00;99.90;;;;;;5076719;28;20024;-75
2023/08/04 09:33:41;;;;;;;0.10;0.10;;;20.10;99.90;;;;;;5074765;28;20036;-74
2023/08/04 09:36:12;;;;;;;0.73;0.60;;;20.20;99.90;;;;;;5074107;28;20024;-73
2023/08/04 09:38:40;;;;;;;7.70;0.25;;;20.30;99.90;;;;;;5071391;28;20036;-75
2023/08/04 09:41:08;;;;;;;0.10;0.10;;;20.60;99.90;;;;;;5078932;28;20024;-75
2023/08/04 09:43:35;;;;;;;0.03;0.03;;;20.80;99.90;;;;;;5076586;28;20017;-75
2023/08/04 09:46:06;;;;;;;2.28;0.52;;;21.10;99.90;;;;;;5078246;28;20051;-75
2023/08/04 09:48:32;;;;;;;1.08;0.55;;;21.00;99.90;;;;;;5074400;28;20572;-71
2023/08/04 09:51:06;;;;;;;0.10;0.10;;;20.40;99.90;;;;;;5084307;28;20080;-75
2023/08/04 09:53:54;;;;;;;0.10;0.10;;;20.50;99.90;;;;;;5081944;28;20116;-75
2023/08/04 09:56:27;;;;;;;0.08;0.08;;;20.50;99.90;;;;;;5078591;28;20036;-75
2023/08/04 09:58:53;;;;;;;0.47;0.47;;;21.20;99.90;;;;;;5078340;28;20041;-75
2023/08/04 10:01:18;;;;;;;1.00;0.38;;;21.10;99.90;;;;;;5081114;28;20477;-75
2023/08/04 10:03:54;;;;;;;0.10;0.10;;;21.00;99.90;;;;;;5082219;28;20093;-75
2023/08/04 10:06:21;;;;;;;0.10;0.10;;;21.30;99.90;;;;;;5082390;28;20020;-75
2023/08/04 10:08:48;;;;;;;0.10;0.10;;;21.60;99.90;;;;;;5075659;28;20518;-74
2023/08/04 10:11:15;;;;;;;0.00;0.00;;;21.50;99.90;;;;;;5077648;28;20042;-74
2023/08/04 10:13:44;;;;;;;0.00;0.00;;;22.00;99.90;;;;;;5075134;28;20016;-74
2023/08/04 10:16:16;;;;;;;0.25;0.25;;;21.90;99.90;;;;;;5089089;28;20434;-75
2023/08/04 10:18:46;;;;;;;1.35;1.25;;;22.00;99.90;;;;;;5087365;28;20106;-75
2023/08/04 10:21:12;;;;;;;0.00;0.00;;;21.50;99.90;;;;;;5077907;28;20028;-75
2023/08/04 10:23:38;;;;;;;0.00;0.00;;;21.70;99.90;;;;;;5088829;28;20039;-75
2023/08/04 10:26:04;;;;;;;0.03;0.03;;;21.80;99.90;;;;;;5076198;28;20024;-75
2023/08/04 10:28:33;;;;;;;0.55;0.38;;;21.60;99.90;;;;;;5079735;28;20139;-75
2023/08/04 10:31:12;;;;;;;0.95;0.93;;;21.20;99.90;;;;;;5084237;28;20034;-75
2023/08/04 10:33:37;;;;;;;0.00;0.00;;;21.50;99.90;;;;;;5075760;28;20405;-74
2023/08/04 10:36:09;;;;;;;0.00;0.00;;;21.70;99.90;;;;;;5082564;28;20103;-74
2023/08/04 10:38:46;;;;;;;0.00;0.00;;;22.20;99.90;;;;;;5074534;28;20043;-74
2023/08/04 10:41:13;;;;;;;0.10;0.10;;;22.20;99.90;;;;;;5080049;28;20033;-74
2023/08/04 10:43:39;;;;;;;0.10;0.10;;;21.80;99.90;;;;;;5077698;28;20673;-74
2023/08/04 10:46:10;;;;;;;0.00;0.00;;;22.10;99.90;;;;;;5077116;28;20055;-75
2023/08/04 10:48:40;;;;;;;0.20;0.20;;;22.10;99.90;;;;;;5076256;28;20020;-74
2023/08/04 10:51:09;;;;;;;2.78;0.43;;;22.20;99.90;;;;;;5081623;28;20198;-74
2023/08/04 10:53:35;;;;;;;0.30;0.30;;;22.20;99.90;;;;;;5084819;28;20032;-74
2023/08/04 10:56:06;;;;;;;0.00;0.00;;;22.20;99.90;;;;;;5084972;28;20040;-75
2023/08/04 10:58:32;;;;;;;0.35;0.35;;;22.10;99.90;;;;;;5076346;28;20035;-74
2023/08/04 11:00:58;;;;;;;1.02;0.40;;;21.90;99.90;;;;;;5073889;28;20029;-74
2023/08/04 11:03:26;;;;;;;5.30;0.22;;;21.70;99.90;;;;;;5074112;28;20078;-74
2023/08/04 11:05:53;;;;;;;0.20;0.20;;;21.50;99.90;;;;;;5073873;28;20024;-75
2023/08/04 11:08:20;;;;;;;0.13;0.13;;;21.80;99.90;;;;;;5074355;28;20029;-74
2023/08/04 11:10:48;;;;;;;0.22;0.20;;;21.80;99.90;;;;;;5074236;28;20093;-74
2023/08/04 11:13:17;;;;;;;0.20;0.20;;;22.20;99.90;;;;;;5074342;28;20107;-71
2023/08/04 11:15:43;;;;;;;0.00;0.00;;;22.20;99.90;;;;;;5073485;28;20028;-71
2023/08/04 11:18:13;;;;;;;0.10;0.10;;;22.50;99.90;;;;;;5073994;28;20495;-71
2023/08/04 11:20:40;;;;;;;4.10;0.22;;;21.80;99.90;;;;;;5072525;28;20029;-71
2023/08/04 11:23:10;;;;;;;0.47;0.47;;;22.30;99.90;;;;;;5079723;28;20103;-75
2023/08/04 11:25:40;;;;;;;0.03;0.03;;;22.00;99.90;;;;;;5091387;28;20028;-75
2023/08/04 11:28:07;;;;;;;0.10;0.10;;;22.00;99.90;;;;;;5094201;28;20024;-75
2023/08/04 11:30:36;;;;;;;0.10;0.10;;;22.40;99.90;;;;;;5093654;28;20051;-75
2023/08/04 11:33:03;;;;;;;0.03;0.03;;;22.80;99.90;;;;;;5094427;28;20031;-74
2023/08/04 11:35:32;;;;;;;0.00;0.00;;;22.90;99.90;;;;;;5094010;28;20149;-75
2023/08/04 11:37:59;;;;;;;0.00;0.00;;;23.00;99.90;;;;;;5094059;28;20032;-75
2023/08/04 11:40:26;;;;;;;0.32;0.10;;;23.20;99.90;;;;;;5093974;28;20104;-75
2023/08/04 11:42:52;;;;;;;0.00;0.00;;;22.90;99.90;;;;;;5093918;28;20456;-74
2023/08/04 11:45:19;;;;;;;0.25;0.20;;;22.50;99.90;;;;;;5093693;28;20055;-75
2023/08/04 11:47:45;;;;;;;0.10;0.10;;;22.20;99.90;;;;;;5093614;28;20028;-75
2023/08/04 11:50:11;;;;;;;0.00;0.00;;;22.30;99.90;;;;;;5093776;28;20017;-75
2023/08/04 11:52:38;;;;;;;0.00;0.00;;;22.90;99.90;;;;;;5093622;28;20034;-75
2023/08/04 11:55:05;;;;;;;0.00;0.00;;;23.50;99.90;;;;;;5093818;28;20024;-74
2023/08/04 11:57:31;;;;;;;0.00;0.00;;;23.00;99.90;;;;;;5093577;28;20400;-75
2023/08/04 11:59:57;;;;;;;1.25;0.15;;;22.70;99.90;;;;;;5093148;28;20104;-75
2023/08/04 12:02:24;;;;;;;0.90;0.90;;;23.30;99.90;;;;;;5093630;28;20036;-75
2023/08/04 12:05:06;;;;;;;0.22;0.20;;;23.60;99.90;;;;;;5093391;28;20070;-75
2023/08/04 12:07:32;;;;;;;0.10;0.10;;;23.00;99.90;;;;;;5079749;28;20032;-75
2023/08/04 12:09:58;;;;;;;0.28;0.28;;;23.40;99.90;;;;;;5093361;28;20031;-74
2023/08/04 12:12:38;;;;;;;0.00;0.00;;;23.10;99.90;;;;;;5093019;28;20024;-75
2023/08/04 12:15:04;;;;;;;2.30;0.28;;;22.70;99.90;;;;;;5093360;28;20103;-75
2023/08/04 12:17:41;;;;;;;0.03;0.03;;;23.20;99.90;;;;;;5092955;28;20540;-74
2023/08/04 12:20:13;;;;;;;0.10;0.10;;;22.90;99.90;;;;;;5093535;28;20484;-75
2023/08/04 12:22:41;;;;;;;0.55;0.17;;;23.00;99.90;;;;;;5077389;28;20473;-75
2023/08/04 12:25:08;;;;;;;0.30;0.10;;;23.00;99.90;;;;;;5093534;28;20035;-75
2023/08/04 12:27:34;;;;;;;0.20;0.20;;;22.80;99.90;;;;;;5092928;28;20054;-75
2023/08/04 12:30:00;;;;;;;0.10;0.10;;;22.30;99.90;;;;;;5093423;28;20023;-75
2023/08/04 12:32:27;;;;;;;1.85;0.95;;;22.90;99.90;;;;;;5093505;28;20065;-75
2023/08/04 12:34:53;;;;;;;0.60;0.38;;;23.20;99.90;;;;;;5093246;28;20024;-75
2023/08/04 12:37:18;;;;;;;1.63;1.48;;;22.20;99.90;;;;;;5093243;28;20028;-74
2023/08/04 12:39:45;;;;;;;0.03;0.03;;;22.00;99.90;;;;;;5093037;28;20039;-75
2023/08/04 12:42:11;;;;;;;0.32;0.25;;;21.90;99.90;;;;;;5092938;28;20016;-75
2023/08/04 12:44:36;;;;;;;0.10;0.10;;;21.90;99.90;;;;;;5093190;28;20059;-75